createdAt,value
2022-10-01T00:01:22.889Z,20.25
2022-10-01T00:04:16.524Z,18.77
2022-10-01T00:07:10.669Z,21.35
2022-10-01T00:10:00.146Z,24.35
2022-10-01T00:12:52.300Z,24.35
2022-10-01T00:15:42.247Z,22.92
2022-10-01T00:18:32.319Z,23.48
2022-10-01T00:21:30.090Z,28.50
2022-10-01T00:24:20.314Z,24.17
2022-10-01T00:27:11.570Z,25.50
2022-10-01T00:30:02.191Z,32.28
2022-10-01T00:32:56.188Z,35.05
2022-10-01T00:35:45.691Z,35.05
2022-10-01T00:38:36.028Z,40.17
2022-10-01T00:41:27.663Z,36.72
2022-10-01T00:44:35.164Z,40.20
2022-10-01T00:47:36.073Z,35.88
2022-10-01T00:50:34.752Z,38.42
2022-10-01T00:53:26.791Z,35.67
2022-10-01T00:56:16.491Z,36.85
2022-10-01T00:59:08.171Z,34.45
2022-10-01T01:01:57.847Z,36.15
2022-10-01T01:04:49.237Z,39.70
2022-10-01T01:07:40.327Z,38.47
2022-10-01T01:10:45.080Z,34.03
2022-10-01T01:13:44.486Z,39.55
2022-10-01T01:16:43.067Z,34.88
2022-10-01T01:19:45.983Z,37.78
2022-10-01T01:22:38.846Z,40.67
2022-10-01T01:25:53.992Z,44.97
2022-10-01T01:28:53.281Z,40.78
2022-10-01T01:31:47.335Z,38.50
2022-10-01T01:34:38.216Z,33.80
2022-10-01T01:37:32.866Z,44.45
2022-10-01T01:40:24.663Z,39.03
2022-10-01T01:43:21.429Z,43.75
2022-10-01T01:46:13.276Z,41.15
2022-10-01T01:49:05.368Z,40.55
2022-10-01T01:52:05.706Z,41.10
2022-10-01T01:54:58.484Z,41.88
2022-10-01T01:57:48.135Z,39.97
2022-10-01T02:00:38.553Z,39.50
2022-10-01T02:03:32.249Z,37.38
2022-10-01T02:06:37.746Z,38.15
2022-10-01T02:09:59.569Z,40.25
2022-10-01T02:12:55.883Z,38.30
2022-10-01T02:15:53.508Z,37.88
2022-10-01T02:19:02.128Z,41.33
2022-10-01T02:22:02.503Z,49.25
2022-10-01T02:24:54.558Z,40.45
2022-10-01T02:27:52.997Z,40.50
2022-10-01T02:30:47.793Z,56.72
2022-10-01T02:33:38.215Z,44.50
2022-10-01T02:36:29.066Z,44.20
2022-10-01T02:39:19.679Z,41.35
2022-10-01T02:42:11.663Z,38.47
2022-10-01T02:45:05.512Z,34.17
2022-10-01T02:48:19.122Z,38.75
2022-10-01T02:51:40.709Z,36.92
2022-10-01T02:54:48.452Z,34.90
2022-10-01T02:57:39.017Z,33.83
2022-10-01T03:00:29.658Z,41.45
2022-10-01T03:03:20.077Z,45.75
2022-10-01T03:06:10.374Z,45.55
2022-10-01T03:09:01.019Z,50.92
2022-10-01T03:11:50.361Z,54.10
2022-10-01T03:14:47.732Z,45.00
2022-10-01T03:17:38.163Z,49.67
2022-10-01T03:20:27.880Z,42.83
2022-10-01T03:23:18.794Z,42.42
2022-10-01T03:26:09.398Z,41.67
2022-10-01T03:28:59.465Z,42.17
2022-10-01T03:31:51.477Z,39.45
2022-10-01T03:34:41.315Z,42.80
2022-10-01T03:37:31.665Z,40.42
2022-10-01T03:40:21.483Z,41.05
2022-10-01T03:43:11.394Z,48.00
2022-10-01T03:46:05.682Z,49.20
2022-10-01T03:48:58.719Z,47.60
2022-10-01T03:51:51.954Z,53.97
2022-10-01T03:54:41.467Z,58.92
2022-10-01T03:57:31.523Z,43.33
2022-10-01T04:00:21.617Z,44.33
2022-10-01T04:03:12.292Z,41.05
2022-10-01T04:06:01.669Z,42.42
2022-10-01T04:08:51.535Z,52.65
2022-10-01T04:11:41.668Z,51.83
2022-10-01T04:14:31.429Z,51.85
2022-10-01T04:17:23.960Z,45.97
2022-10-01T04:20:14.062Z,56.25
2022-10-01T04:23:05.836Z,63.75
2022-10-01T04:25:55.837Z,54.67
2022-10-01T04:28:48.258Z,51.13
2022-10-01T04:31:38.606Z,50.35
2022-10-01T04:34:49.328Z,48.83
2022-10-01T04:37:39.328Z,46.90
2022-10-01T04:40:30.078Z,49.72
2022-10-01T04:43:19.735Z,48.40
2022-10-01T04:46:12.686Z,45.72
2022-10-01T04:49:02.013Z,42.97
2022-10-01T04:51:51.083Z,43.10
2022-10-01T04:54:40.771Z,41.45
2022-10-01T04:57:31.084Z,38.85
2022-10-01T05:00:25.382Z,33.80
2022-10-01T05:03:15.883Z,30.63
2022-10-01T05:06:07.989Z,31.58
2022-10-01T05:08:58.693Z,32.58
2022-10-01T05:11:52.980Z,31.02
2022-10-01T05:14:43.023Z,24.90
2022-10-01T05:17:34.066Z,26.55
2022-10-01T05:20:31.039Z,27.75
2022-10-01T05:23:20.828Z,31.33
2022-10-01T05:26:11.375Z,33.22
2022-10-01T05:29:04.472Z,30.20
2022-10-01T05:31:55.346Z,26.30
2022-10-01T05:34:46.360Z,29.85
2022-10-01T05:37:38.607Z,26.08
2022-10-01T05:40:31.939Z,32.33
2022-10-01T05:43:21.787Z,41.67
2022-10-01T05:46:14.202Z,32.47
2022-10-01T05:49:03.775Z,36.58
2022-10-01T05:51:54.789Z,39.75
2022-10-01T05:54:44.502Z,35.13
2022-10-01T05:57:35.196Z,38.65
2022-10-01T06:00:25.490Z,40.28
2022-10-01T06:03:16.206Z,38.65
2022-10-01T06:06:09.853Z,42.38
2022-10-01T06:09:01.387Z,37.50
2022-10-01T06:11:51.517Z,37.70
2022-10-01T06:14:42.220Z,32.47
2022-10-01T06:17:35.148Z,27.75
2022-10-01T06:20:25.657Z,23.20
2022-10-01T06:23:16.043Z,21.98
2022-10-01T06:26:08.094Z,23.02
2022-10-01T06:28:58.403Z,27.95
2022-10-01T06:31:48.625Z,31.13
2022-10-01T06:34:38.691Z,29.50
2022-10-01T06:37:28.496Z,29.63
2022-10-01T06:40:18.234Z,28.63
2022-10-01T06:43:09.347Z,23.27
2022-10-01T06:46:02.326Z,26.85
2022-10-01T06:48:52.784Z,30.65
2022-10-01T06:52:03.141Z,27.02
2022-10-01T06:54:53.297Z,26.58
2022-10-01T06:57:43.802Z,27.20
2022-10-01T07:00:36.473Z,27.55
2022-10-01T07:03:26.879Z,26.38
2022-10-01T07:06:16.688Z,24.63
2022-10-01T07:09:07.164Z,22.15
2022-10-01T07:11:58.286Z,23.27
2022-10-01T07:14:48.880Z,20.98
2022-10-01T07:17:49.876Z,18.75
2022-10-01T07:20:42.577Z,22.45
2022-10-01T07:23:32.566Z,23.65
2022-10-01T07:26:22.154Z,20.80
2022-10-01T07:29:12.843Z,15.77
2022-10-01T07:32:05.095Z,19.65
2022-10-01T07:34:57.592Z,17.38
2022-10-01T07:37:50.222Z,15.40
2022-10-01T07:40:43.196Z,19.77
2022-10-01T07:43:37.644Z,21.55
2022-10-01T07:46:34.495Z,21.40
2022-10-01T07:49:28.621Z,22.67
2022-10-01T07:52:18.565Z,25.67
2022-10-01T07:55:12.021Z,22.90
2022-10-01T07:58:05.148Z,21.92
2022-10-01T08:00:59.331Z,23.65
2022-10-01T08:03:54.591Z,20.25
2022-10-01T08:06:45.931Z,23.50
2022-10-01T08:09:39.564Z,24.40
2022-10-01T08:12:31.446Z,18.85
2022-10-01T08:15:21.431Z,25.75
2022-10-01T08:18:12.318Z,18.27
2022-10-01T08:21:05.644Z,22.00
2022-10-01T08:23:57.157Z,19.83
2022-10-01T08:26:47.131Z,23.67
2022-10-01T08:29:39.581Z,22.67
2022-10-01T08:32:31.962Z,27.40
2022-10-01T08:35:24.465Z,21.98
2022-10-01T08:38:15.508Z,23.70
2022-10-01T08:41:34.627Z,28.50
2022-10-01T08:44:38.429Z,20.83
2022-10-01T08:47:38.898Z,26.45
2022-10-01T08:50:42.931Z,28.75
2022-10-01T08:53:42.655Z,28.90
2022-10-01T08:56:50.495Z,26.75
2022-10-01T08:59:44.869Z,27.85
2022-10-01T09:02:36.955Z,29.30
2022-10-01T09:05:45.013Z,29.52
2022-10-01T09:09:09.019Z,34.03
2022-10-01T09:12:20.836Z,34.17
2022-10-01T09:15:28.992Z,32.28
2022-10-01T09:18:37.645Z,35.60
2022-10-01T09:21:48.489Z,35.58
2022-10-01T09:24:51.828Z,36.38
2022-10-01T09:27:43.929Z,39.50
2022-10-01T09:30:35.728Z,37.85
2022-10-01T09:33:32.310Z,40.10
2022-10-01T09:36:26.381Z,40.05
2022-10-01T09:39:22.095Z,25.48
2022-10-01T09:42:11.931Z,23.02
2022-10-01T09:45:01.895Z,28.25
2022-10-01T09:47:55.086Z,26.35
2022-10-01T09:50:56.536Z,24.00
2022-10-01T09:54:04.715Z,235.20
2022-10-01T09:57:10.553Z,20.65
2022-10-01T10:00:09.043Z,16.05
2022-10-01T10:02:59.033Z,13.20
2022-10-01T10:05:50.338Z,17.15
2022-10-01T10:08:41.292Z,15.57
2022-10-01T10:11:35.181Z,15.63
2022-10-01T10:14:37.131Z,16.58
2022-10-01T10:17:27.550Z,18.73
2022-10-01T10:20:30.250Z,18.65
2022-10-01T10:23:27.098Z,19.13
2022-10-01T10:26:29.470Z,22.90
2022-10-01T10:29:33.525Z,23.25
2022-10-01T10:32:30.422Z,28.02
2022-10-01T10:35:26.221Z,26.67
2022-10-01T10:38:23.915Z,33.85
2022-10-01T10:41:20.807Z,44.83
2022-10-01T10:44:16.621Z,35.72
2022-10-01T10:47:12.705Z,40.47
2022-10-01T10:50:05.476Z,37.88
2022-10-01T10:52:54.877Z,42.42
2022-10-01T10:55:56.845Z,42.80
2022-10-01T10:58:51.052Z,38.55
2022-10-01T11:01:43.469Z,36.72
2022-10-01T11:04:43.590Z,40.45
2022-10-01T11:07:34.623Z,34.13
2022-10-01T11:10:32.446Z,34.72
2022-10-01T11:14:00.614Z,33.13
2022-10-01T11:17:28.599Z,38.47
2022-10-01T11:20:31.426Z,44.80
2022-10-01T11:23:52.567Z,48.17
2022-10-01T11:27:08.148Z,39.53
2022-10-01T11:30:16.629Z,44.20
2022-10-01T11:33:25.291Z,38.67
2022-10-01T11:36:25.939Z,32.50
2022-10-01T11:39:19.455Z,38.83
2022-10-01T11:42:13.161Z,37.33
2022-10-01T11:45:26.281Z,39.67
2022-10-01T11:48:25.880Z,64.30
2022-10-01T11:51:36.119Z,67.68
2022-10-01T11:54:28.436Z,59.88
2022-10-01T11:57:36.720Z,67.68
2022-10-01T12:00:27.482Z,123.15
2022-10-01T12:03:23.052Z,93.38
2022-10-01T12:06:15.842Z,62.35
2022-10-01T12:09:09.336Z,67.28
2022-10-01T12:12:08.067Z,59.60
2022-10-01T12:15:14.820Z,53.92
2022-10-01T12:18:15.198Z,57.08
2022-10-01T12:21:09.216Z,42.08
2022-10-01T12:24:08.415Z,49.80
2022-10-01T12:27:03.588Z,54.55
2022-10-01T12:30:07.068Z,44.28
2022-10-01T12:33:22.295Z,45.22
2022-10-01T12:36:18.456Z,43.60
2022-10-01T12:39:36.588Z,49.25
2022-10-01T12:42:50.846Z,46.45
2022-10-01T12:45:59.014Z,47.72
2022-10-01T12:49:13.175Z,44.60
2022-10-01T12:52:09.660Z,46.88
2022-10-01T12:55:20.835Z,52.03
2022-10-01T12:58:20.891Z,44.45
2022-10-01T13:01:55.603Z,43.38
2022-10-01T13:05:11.537Z,47.00
2022-10-01T13:08:39.589Z,47.28
2022-10-01T13:12:01.459Z,52.47
2022-10-01T13:14:55.414Z,45.72
2022-10-01T13:18:09.553Z,49.45
2022-10-01T13:21:19.778Z,50.95
2022-10-01T13:24:20.117Z,44.60
2022-10-01T13:27:16.848Z,48.60
2022-10-01T13:30:29.415Z,55.03
2022-10-01T13:33:27.307Z,46.63
2022-10-01T13:36:23.490Z,47.72
2022-10-01T13:39:23.759Z,45.92
2022-10-01T13:42:28.920Z,41.00
2022-10-01T13:45:41.339Z,39.03
2022-10-01T13:48:36.701Z,43.20
2022-10-01T13:51:36.571Z,39.33
2022-10-01T13:54:48.539Z,36.08
2022-10-01T13:57:40.190Z,31.45
2022-10-01T14:00:33.534Z,35.40
2022-10-01T14:04:01.006Z,34.50
2022-10-01T14:07:04.424Z,41.25
2022-10-01T14:09:59.319Z,31.27
2022-10-01T14:13:07.294Z,30.65
2022-10-01T14:16:00.897Z,37.15
2022-10-01T14:18:52.769Z,34.67
2022-10-01T14:22:04.935Z,32.83
2022-10-01T14:25:23.398Z,29.13
2022-10-01T14:28:33.942Z,28.42
2022-10-01T14:32:04.604Z,21.95
2022-10-01T14:35:20.533Z,30.95
2022-10-01T14:38:24.099Z,28.38
2022-10-01T14:41:21.872Z,27.25
2022-10-01T14:44:41.659Z,27.00
2022-10-01T14:47:37.024Z,28.02
2022-10-01T14:50:27.306Z,28.90
2022-10-01T14:53:40.460Z,33.15
2022-10-01T14:56:30.794Z,30.52
2022-10-01T14:59:34.571Z,30.33
2022-10-01T15:02:26.860Z,28.88
2022-10-01T15:05:30.433Z,29.02
2022-10-01T15:08:24.868Z,35.65
2022-10-01T15:11:18.503Z,40.70
2022-10-01T15:14:11.797Z,32.35
2022-10-01T15:17:07.428Z,29.08
2022-10-01T15:20:01.121Z,25.70
2022-10-01T15:23:01.059Z,29.83
2022-10-01T15:25:51.591Z,35.22
2022-10-01T15:28:42.184Z,30.88
2022-10-01T15:31:35.065Z,28.48
2022-10-01T15:34:26.753Z,32.03
2022-10-01T15:37:35.369Z,33.83
2022-10-01T15:40:30.726Z,33.00
2022-10-01T15:43:35.522Z,29.35
2022-10-01T15:46:36.281Z,27.73
2022-10-01T15:49:28.564Z,30.40
2022-10-01T15:52:36.948Z,28.83
2022-10-01T15:55:40.007Z,26.20
2022-10-01T15:58:40.113Z,27.13
2022-10-01T16:01:32.975Z,29.27
2022-10-01T16:04:23.354Z,33.00
2022-10-01T16:07:28.239Z,35.22
2022-10-01T16:10:41.828Z,34.15
2022-10-01T16:13:41.076Z,32.88
2022-10-01T16:16:32.379Z,33.53
2022-10-01T16:19:33.085Z,27.02
2022-10-01T16:22:26.995Z,28.02
2022-10-01T16:25:25.929Z,31.52
2022-10-01T16:28:44.137Z,29.23
2022-10-01T16:31:38.321Z,34.78
2022-10-01T16:34:29.690Z,30.40
2022-10-01T16:37:20.664Z,28.83
2022-10-01T16:40:16.320Z,29.05
2022-10-01T16:43:06.097Z,28.65
2022-10-01T16:45:57.375Z,29.08
2022-10-01T16:48:49.533Z,27.90
2022-10-01T16:51:41.298Z,36.95
2022-10-01T16:54:31.348Z,29.38
2022-10-01T16:57:24.372Z,29.73
2022-10-01T17:00:20.275Z,32.22
2022-10-01T17:03:16.075Z,31.70
2022-10-01T17:06:07.417Z,36.55
2022-10-01T17:09:02.678Z,31.50
2022-10-01T17:11:53.315Z,29.27
2022-10-01T17:14:43.746Z,24.52
2022-10-01T17:17:36.689Z,26.13
2022-10-01T17:20:28.821Z,24.52
2022-10-01T17:23:20.785Z,25.05
2022-10-01T17:26:10.698Z,27.20
2022-10-01T17:29:00.933Z,25.17
2022-10-01T17:31:54.162Z,22.02
2022-10-01T17:34:44.158Z,18.00
2022-10-01T17:37:34.780Z,19.00
2022-10-01T17:40:26.157Z,18.63
2022-10-01T17:43:17.653Z,13.88
2022-10-01T17:46:07.926Z,16.95
2022-10-01T17:49:03.446Z,19.02
2022-10-01T17:51:57.011Z,22.85
2022-10-01T17:54:47.465Z,22.17
2022-10-01T17:57:39.201Z,19.63
2022-10-01T18:00:28.737Z,19.63
2022-10-01T18:03:21.059Z,18.27
2022-10-01T18:06:14.808Z,14.25
2022-10-01T18:09:07.087Z,14.15
2022-10-01T18:11:56.420Z,11.00
2022-10-01T18:14:46.276Z,11.05
2022-10-01T18:17:36.830Z,9.57
2022-10-01T18:20:27.162Z,9.45
2022-10-01T18:23:17.191Z,13.40
2022-10-01T18:26:07.429Z,11.98
2022-10-01T18:29:02.945Z,16.10
2022-10-01T18:32:01.490Z,8.52
2022-10-01T18:35:03.004Z,12.13
2022-10-01T18:37:58.459Z,10.85
2022-10-01T18:40:56.069Z,11.52
2022-10-01T18:43:48.202Z,12.88
2022-10-01T18:46:46.705Z,10.23
2022-10-01T18:49:48.471Z,11.00
2022-10-01T18:53:13.673Z,13.93
2022-10-01T18:56:30.403Z,13.30
2022-10-01T18:59:29.242Z,11.10
2022-10-01T19:02:23.825Z,11.10
2022-10-01T19:05:44.234Z,10.15
2022-10-01T19:08:51.960Z,9.23
2022-10-01T19:11:58.880Z,8.18
2022-10-01T19:14:58.738Z,11.55
2022-10-01T19:18:03.872Z,9.40
2022-10-01T19:20:55.684Z,8.30
2022-10-01T19:24:06.676Z,8.38
2022-10-01T19:27:19.296Z,9.52
2022-10-01T19:30:17.142Z,7.82
2022-10-01T19:33:15.850Z,8.05
2022-10-01T19:36:07.763Z,5.22
2022-10-01T19:39:02.013Z,8.38
2022-10-01T19:42:02.751Z,4.75
2022-10-01T19:45:04.756Z,9.57
2022-10-01T19:47:56.689Z,6.47
2022-10-01T19:50:51.440Z,6.35
2022-10-01T19:53:46.129Z,9.38
2022-10-01T19:56:39.484Z,7.38
2022-10-01T19:59:29.937Z,8.93
2022-10-01T20:02:36.314Z,5.45
2022-10-01T20:05:44.810Z,7.80
2022-10-01T20:08:42.304Z,7.68
2022-10-01T20:11:47.132Z,8.80
2022-10-01T20:15:15.563Z,5.72
2022-10-01T20:18:27.129Z,7.57
2022-10-01T20:21:27.566Z,6.53
2022-10-01T20:24:59.784Z,8.02
2022-10-01T20:28:10.461Z,9.13
2022-10-01T20:31:21.117Z,8.63
2022-10-01T20:34:34.381Z,8.82
2022-10-01T20:37:38.459Z,11.88
2022-10-01T20:40:30.758Z,6.00
2022-10-01T20:43:36.133Z,6.82
2022-10-01T20:46:44.299Z,8.32
2022-10-01T20:50:09.416Z,6.80
2022-10-01T20:53:17.166Z,6.80
2022-10-01T20:56:22.873Z,9.07
2022-10-01T20:59:26.857Z,7.75
2022-10-01T21:02:19.993Z,11.07
2022-10-01T21:05:14.964Z,6.88
2022-10-01T21:08:33.527Z,7.22
2022-10-01T21:11:39.127Z,6.25
2022-10-01T21:14:34.390Z,9.73
2022-10-01T21:17:27.177Z,8.30
2022-10-01T21:20:31.765Z,6.75
2022-10-01T21:23:56.278Z,10.45
2022-10-01T21:26:56.953Z,11.05
2022-10-01T21:29:59.035Z,11.50
2022-10-01T21:33:01.880Z,10.68
2022-10-01T21:35:55.779Z,13.90
2022-10-01T21:39:16.129Z,7.95
2022-10-01T21:42:16.156Z,9.80
2022-10-01T21:45:14.028Z,7.60
2022-10-01T21:48:26.197Z,10.32
2022-10-01T21:51:32.920Z,15.05
2022-10-01T21:54:51.258Z,10.25
2022-10-01T21:57:54.438Z,10.25
2022-10-01T22:00:57.458Z,20.08
2022-10-01T22:04:10.599Z,12.52
2022-10-01T22:07:18.369Z,13.63
2022-10-01T22:10:12.470Z,14.80
2022-10-01T22:13:07.933Z,12.55
2022-10-01T22:16:03.119Z,12.05
2022-10-01T22:18:58.179Z,9.65
2022-10-01T22:21:49.945Z,9.25
2022-10-01T22:24:50.574Z,7.72
2022-10-01T22:27:49.595Z,11.13
2022-10-01T22:30:41.283Z,13.02
2022-10-01T22:33:39.199Z,8.60
2022-10-01T22:36:43.085Z,10.48
2022-10-01T22:39:41.205Z,10.07
2022-10-01T22:42:44.124Z,11.60
2022-10-01T22:46:10.364Z,12.82
2022-10-01T22:49:27.657Z,12.38
2022-10-01T22:52:30.083Z,11.35
2022-10-01T22:55:38.821Z,14.82
2022-10-01T22:58:50.162Z,13.48
2022-10-01T23:01:54.023Z,14.98
2022-10-01T23:05:08.418Z,14.73
2022-10-01T23:07:59.670Z,15.07
2022-10-01T23:11:02.416Z,16.92
2022-10-01T23:14:03.965Z,16.83
2022-10-01T23:17:17.879Z,16.90
2022-10-01T23:20:30.441Z,15.80
2022-10-01T23:23:33.187Z,13.40
2022-10-01T23:26:42.800Z,14.80
2022-10-01T23:29:35.660Z,18.65
2022-10-01T23:32:49.856Z,18.35
2022-10-01T23:36:09.011Z,18.75
2022-10-01T23:39:35.236Z,16.13
2022-10-01T23:42:48.097Z,16.55
2022-10-01T23:45:42.293Z,16.08
2022-10-01T23:48:50.312Z,20.35
2022-10-01T23:52:12.365Z,18.45
2022-10-01T23:55:28.376Z,16.10
2022-10-01T23:58:17.909Z,16.40
